Time;durP1;ratioP1;P1;durP2;ratioP2;P2;SDS_P1;SDS_P2;PMS_P1;PMS_P2;Temp;Humidity;BMP_temperature;BMP_pressure;BME280_temperature;BME280_humidity;BME280_pressure;Samples;Min_cycle;Max_cycle;Signal;HPM_P1;HPM_P2
2021/10/23 00:00:42;;;;;;;4.73;3.70;;;9.40;80.00;;;;;;5084471;28;20218;-90
2021/10/23 00:03:09;;;;;;;5.73;3.63;;;9.30;80.00;;;;;;5083977;28;20191;-89
2021/10/23 00:05:35;;;;;;;8.60;4.30;;;9.30;80.90;;;;;;5102575;28;20222;-90
2021/10/23 00:08:01;;;;;;;8.00;3.93;;;9.40;80.40;;;;;;5084541;28;20183;-89
2021/10/23 00:10:27;;;;;;;5.97;3.83;;;9.40;80.20;;;;;;5103822;28;20214;-89
2021/10/23 00:12:53;;;;;;;6.53;3.77;;;9.30;80.60;;;;;;5086413;28;20539;-89
2021/10/23 00:15:19;;;;;;;8.30;3.73;;;9.40;80.60;;;;;;5104539;28;20211;-89
2021/10/23 00:17:45;;;;;;;5.27;3.83;;;9.40;80.30;;;;;;5104661;28;20262;-89
2021/10/23 00:20:11;;;;;;;10.17;4.40;;;9.40;80.10;;;;;;5095728;28;20228;-90
2021/10/23 00:22:37;;;;;;;4.47;3.43;;;9.50;80.10;;;;;;5084981;28;20197;-90
2021/10/23 00:25:04;;;;;;;4.90;3.63;;;9.40;80.40;;;;;;5102859;28;20198;-90
2021/10/23 00:27:30;;;;;;;5.80;4.00;;;9.40;80.50;;;;;;5105094;28;20369;-90
2021/10/23 00:29:55;;;;;;;5.80;3.97;;;9.50;79.90;;;;;;5105608;28;20219;-90
2021/10/23 00:32:21;;;;;;;5.10;3.33;;;9.40;80.40;;;;;;5054060;28;20187;-89
2021/10/23 00:34:47;;;;;;;6.40;4.13;;;9.30;81.50;;;;;;5087854;28;20248;-89
2021/10/23 00:37:13;;;;;;;4.83;3.73;;;9.40;80.60;;;;;;5106161;28;20246;-89
2021/10/23 00:39:39;;;;;;;6.97;3.63;;;9.50;80.70;;;;;;5085309;28;20271;-91
2021/10/23 00:42:08;;;;;;;5.73;3.67;;;9.30;80.90;;;;;;5067529;28;20186;-90
2021/10/23 00:44:41;;;;;;;5.13;3.20;;;9.40;81.00;;;;;;5102614;28;20202;-89
2021/10/23 00:47:10;;;;;;;6.83;3.70;;;9.50;80.70;;;;;;5084743;28;20219;-89
2021/10/23 00:49:38;;;;;;;8.97;3.70;;;9.50;80.60;;;;;;5084663;28;20207;-89
2021/10/23 00:52:05;;;;;;;5.27;3.40;;;9.40;80.50;;;;;;5083880;28;20206;-89
2021/10/23 00:54:32;;;;;;;5.13;3.73;;;9.40;80.80;;;;;;5101711;28;20715;-89
2021/10/23 00:56:58;;;;;;;8.27;3.40;;;9.40;80.80;;;;;;5099523;28;20187;-89
2021/10/23 00:59:24;;;;;;;4.67;3.10;;;9.30;81.10;;;;;;5101538;28;20214;-89
2021/10/23 01:01:50;;;;;;;7.07;3.60;;;9.40;81.10;;;;;;5102347;28;20175;-89
2021/10/23 01:04:19;;;;;;;4.87;3.20;;;9.30;80.20;;;;;;5101693;28;20641;-89
2021/10/23 01:06:45;;;;;;;8.13;3.53;;;9.40;80.60;;;;;;5101841;28;20183;-89
2021/10/23 01:09:11;;;;;;;7.30;3.33;;;9.40;79.70;;;;;;5101053;28;20199;-89
2021/10/23 01:11:37;;;;;;;5.20;3.20;;;9.30;80.10;;;;;;5101367;28;20191;-89
2021/10/23 01:14:03;;;;;;;4.87;3.27;;;9.30;80.10;;;;;;5084010;28;20246;-89
2021/10/23 01:16:29;;;;;;;5.50;3.23;;;9.40;79.30;;;;;;5083875;28;20211;-90
2021/10/23 01:18:54;;;;;;;4.97;3.20;;;9.40;79.80;;;;;;5083531;28;20190;-89
2021/10/23 01:21:21;;;;;;;5.40;3.37;;;9.40;79.30;;;;;;5102365;28;20616;-89
2021/10/23 01:23:47;;;;;;;5.60;3.87;;;9.40;79.00;;;;;;5083820;28;20198;-89
2021/10/23 01:26:13;;;;;;;7.43;2.97;;;9.40;79.60;;;;;;5102650;28;20232;-90
2021/10/23 01:28:39;;;;;;;7.00;3.77;;;9.40;79.20;;;;;;5102306;28;20187;-90
2021/10/23 01:31:04;;;;;;;5.67;3.40;;;9.40;78.50;;;;;;5104080;28;20202;-89
2021/10/23 01:33:30;;;;;;;5.00;3.67;;;9.40;77.80;;;;;;5106978;28;20186;-90
2021/10/23 01:36:17;;;;;;;4.90;3.20;;;9.30;79.00;;;;;;5073663;28;20219;-90
2021/10/23 01:38:46;;;;;;;5.20;3.30;;;9.30;79.10;;;;;;5107607;28;20575;-89
2021/10/23 01:41:13;;;;;;;3.57;3.00;;;9.40;78.50;;;;;;5108087;28;20464;-89
2021/10/23 01:43:39;;;;;;;6.30;3.53;;;9.40;77.60;;;;;;5089821;28;20244;-90
2021/10/23 01:46:05;;;;;;;4.27;3.13;;;9.40;78.20;;;;;;5112454;27;20186;-91
2021/10/23 01:48:34;;;;;;;6.80;3.00;;;9.20;78.40;;;;;;5083014;28;20179;-91
2021/10/23 01:51:00;;;;;;;5.37;3.03;;;9.30;78.40;;;;;;5101654;28;20229;-89
2021/10/23 01:53:25;;;;;;;5.87;2.97;;;9.30;77.90;;;;;;5101146;28;20175;-89
2021/10/23 01:55:52;;;;;;;3.70;3.00;;;9.30;77.90;;;;;;5116394;28;20232;-91
2021/10/23 01:58:19;;;;;;;4.97;3.23;;;9.20;78.40;;;;;;5117444;28;20151;-91
2021/10/23 02:00:46;;;;;;;5.00;3.27;;;9.30;78.10;;;;;;5086709;28;20266;-90
2021/10/23 02:03:12;;;;;;;4.50;3.30;;;9.40;77.30;;;;;;5082253;28;20198;-89
2021/10/23 02:05:38;;;;;;;4.97;2.93;;;9.50;77.80;;;;;;5100966;28;20187;-89
2021/10/23 02:08:04;;;;;;;4.93;3.30;;;9.60;77.10;;;;;;5101455;28;20231;-89
2021/10/23 02:10:32;;;;;;;5.00;2.90;;;9.60;77.10;;;;;;5100704;28;20674;-89
2021/10/23 02:12:58;;;;;;;6.17;3.33;;;9.70;77.20;;;;;;5082647;28;20182;-89
2021/10/23 02:15:24;;;;;;;4.60;3.20;;;9.70;76.60;;;;;;5100545;28;20260;-89
2021/10/23 02:17:49;;;;;;;4.23;3.17;;;9.80;77.20;;;;;;5100246;28;20183;-89
2021/10/23 02:20:15;;;;;;;5.87;3.40;;;9.70;77.30;;;;;;5100324;28;20209;-89
2021/10/23 02:22:41;;;;;;;6.70;4.57;;;9.80;77.60;;;;;;5086380;28;20194;-90
2021/10/23 02:25:11;;;;;;;4.13;3.17;;;9.80;77.40;;;;;;5088872;28;20212;-89
2021/10/23 02:27:37;;;;;;;8.80;5.27;;;9.90;78.10;;;;;;5106937;28;20182;-89
2021/10/23 02:30:06;;;;;;;11.63;6.63;;;9.90;77.40;;;;;;5088870;28;20199;-89
2021/10/23 02:32:32;;;;;;;9.37;5.67;;;9.90;76.90;;;;;;5088900;28;20259;-90
2021/10/23 02:34:58;;;;;;;13.90;8.17;;;9.90;77.40;;;;;;5106723;28;20266;-89
2021/10/23 02:37:24;;;;;;;14.00;7.80;;;9.80;76.50;;;;;;5089414;28;20178;-89
2021/10/23 02:39:50;;;;;;;11.00;8.00;;;9.90;76.80;;;;;;5106906;28;20198;-89
2021/10/23 02:42:16;;;;;;;15.07;8.57;;;9.80;76.80;;;;;;5106889;28;20210;-90
2021/10/23 02:44:42;;;;;;;12.83;8.03;;;9.90;76.30;;;;;;5089037;28;20277;-90
2021/10/23 02:47:08;;;;;;;14.50;8.50;;;9.90;76.50;;;;;;5072828;28;20187;-89
2021/10/23 02:49:34;;;;;;;12.87;7.23;;;9.90;76.40;;;;;;5073029;28;20290;-90
2021/10/23 02:51:59;;;;;;;11.37;6.63;;;9.70;77.70;;;;;;5107606;28;20191;-90
2021/10/23 02:54:25;;;;;;;11.23;6.70;;;9.70;77.40;;;;;;5089266;28;20191;-89
2021/10/23 02:56:51;;;;;;;14.47;7.63;;;9.50;77.90;;;;;;5071882;28;20187;-90
2021/10/23 02:59:17;;;;;;;12.37;7.87;;;9.50;78.20;;;;;;5107017;28;20263;-89
2021/10/23 03:01:42;;;;;;;13.63;8.20;;;9.40;78.40;;;;;;5107292;28;20254;-90
2021/10/23 03:04:08;;;;;;;16.63;9.33;;;9.50;78.20;;;;;;5107448;28;20189;-90
2021/10/23 03:06:34;;;;;;;16.67;9.80;;;9.40;78.80;;;;;;5071723;28;20186;-89
2021/10/23 03:09:00;;;;;;;13.50;9.33;;;9.40;78.70;;;;;;5106518;28;20268;-89
2021/10/23 03:11:25;;;;;;;18.17;10.50;;;9.30;79.10;;;;;;5104800;28;20199;-90
2021/10/23 03:13:51;;;;;;;17.13;11.40;;;9.40;79.20;;;;;;5089231;28;20566;-89
2021/10/23 03:16:17;;;;;;;24.53;11.90;;;9.20;79.90;;;;;;5088753;28;20210;-89
2021/10/23 03:18:42;;;;;;;20.30;11.30;;;9.20;80.40;;;;;;5106888;28;20197;-89
2021/10/23 03:21:08;;;;;;;19.90;11.23;;;9.20;80.20;;;;;;5072785;28;20256;-89
2021/10/23 03:23:34;;;;;;;18.67;11.43;;;9.30;79.50;;;;;;5107827;28;20202;-90
2021/10/23 03:26:00;;;;;;;13.97;8.93;;;9.30;79.70;;;;;;5072861;28;20192;-90
2021/10/23 03:28:26;;;;;;;16.57;10.43;;;9.30;79.60;;;;;;5089402;28;20194;-90
2021/10/23 03:30:52;;;;;;;16.37;10.37;;;9.20;80.00;;;;;;5088117;28;20203;-88
2021/10/23 03:33:17;;;;;;;13.23;7.73;;;9.20;80.40;;;;;;5105372;28;20186;-90
2021/10/23 03:35:43;;;;;;;15.80;9.63;;;9.40;79.60;;;;;;5084153;28;20411;-89
2021/10/23 03:38:09;;;;;;;13.03;8.00;;;9.30;80.10;;;;;;5084793;28;20204;-90
2021/10/23 03:40:35;;;;;;;9.93;6.77;;;9.20;80.40;;;;;;5103766;28;20524;-89
2021/10/23 03:43:00;;;;;;;11.57;7.50;;;9.20;80.20;;;;;;5084973;28;20190;-89
2021/10/23 03:45:26;;;;;;;10.63;7.17;;;9.30;80.10;;;;;;5104200;28;20187;-90
2021/10/23 03:47:52;;;;;;;12.17;7.10;;;9.20;80.20;;;;;;5072080;28;20189;-89
2021/10/23 03:50:18;;;;;;;8.90;7.87;;;9.20;80.20;;;;;;5085295;28;20206;-89
2021/10/23 03:52:44;;;;;;;10.83;7.50;;;9.20;80.90;;;;;;5102836;28;20248;-90
2021/10/23 03:55:10;;;;;;;11.90;7.33;;;9.20;80.90;;;;;;5068541;28;20298;-89
2021/10/23 03:57:37;;;;;;;16.90;8.33;;;9.20;80.90;;;;;;5103351;28;20195;-89
2021/10/23 04:00:05;;;;;;;12.90;7.00;;;9.20;81.10;;;;;;5084741;28;20276;-89
2021/10/23 04:02:31;;;;;;;9.93;7.50;;;9.10;81.60;;;;;;5104009;28;20175;-90
2021/10/23 04:04:57;;;;;;;11.53;6.93;;;9.10;81.60;;;;;;5104172;28;20606;-90
2021/10/23 04:07:23;;;;;;;14.93;6.67;;;9.00;81.80;;;;;;5104484;28;20206;-90
2021/10/23 04:09:49;;;;;;;11.40;7.83;;;9.00;81.90;;;;;;5086041;28;20700;-89
2021/10/23 04:12:15;;;;;;;10.70;6.33;;;9.10;81.80;;;;;;5103798;28;20175;-89
2021/10/23 04:14:40;;;;;;;9.27;6.57;;;9.10;81.10;;;;;;5103834;28;20663;-90
2021/10/23 04:17:06;;;;;;;12.47;7.07;;;9.20;81.10;;;;;;5103888;28;20179;-89
2021/10/23 04:19:32;;;;;;;10.97;6.73;;;9.20;80.80;;;;;;5085667;28;20195;-89
2021/10/23 04:21:58;;;;;;;12.93;7.47;;;9.30;81.00;;;;;;5103933;28;20183;-90
2021/10/23 04:24:24;;;;;;;8.37;6.37;;;9.40;80.60;;;;;;5086223;28;20199;-90
2021/10/23 04:26:52;;;;;;;9.30;5.97;;;9.50;79.50;;;;;;5104113;28;20235;-90
2021/10/23 04:29:21;;;;;;;10.10;5.27;;;9.40;79.90;;;;;;5085931;28;20212;-89
2021/10/23 04:31:47;;;;;;;6.80;4.43;;;9.50;79.90;;;;;;5103839;28;20184;-90
2021/10/23 04:34:14;;;;;;;7.53;4.00;;;9.50;78.90;;;;;;5104591;28;20175;-90
2021/10/23 04:36:39;;;;;;;6.47;3.67;;;9.50;79.20;;;;;;5079589;28;20234;-91
2021/10/23 04:39:05;;;;;;;7.57;4.13;;;9.50;78.90;;;;;;5118084;28;20351;-90
2021/10/23 04:41:31;;;;;;;6.23;3.90;;;9.50;79.00;;;;;;5085787;28;20192;-90
2021/10/23 04:43:57;;;;;;;5.73;4.30;;;9.50;79.10;;;;;;5085895;28;20248;-89
2021/10/23 04:46:22;;;;;;;7.33;4.47;;;9.50;78.20;;;;;;5100688;28;20197;-92
2021/10/23 04:48:48;;;;;;;6.30;3.87;;;9.30;79.70;;;;;;5118820;28;20168;-92
2021/10/23 04:51:14;;;;;;;6.53;3.80;;;9.20;79.50;;;;;;5093615;28;20183;-90
2021/10/23 04:53:40;;;;;;;5.03;3.93;;;9.20;79.80;;;;;;5085627;28;20286;-89
2021/10/23 04:56:05;;;;;;;5.70;3.47;;;9.20;80.10;;;;;;5068597;28;20214;-90
2021/10/23 04:58:32;;;;;;;5.20;3.90;;;9.20;79.50;;;;;;5085565;28;20185;-89
2021/10/23 05:00:59;;;;;;;5.20;4.13;;;9.40;79.50;;;;;;5069040;28;20215;-89
2021/10/23 05:03:26;;;;;;;6.63;3.97;;;9.40;79.50;;;;;;5084771;28;20287;-89
2021/10/23 05:05:52;;;;;;;5.93;3.83;;;9.40;79.30;;;;;;5068506;28;20184;-90
2021/10/23 05:08:18;;;;;;;8.67;4.40;;;9.50;78.90;;;;;;5068817;28;20202;-90
2021/10/23 05:10:43;;;;;;;6.70;4.53;;;9.50;78.40;;;;;;5084939;28;20203;-89
2021/10/23 05:13:10;;;;;;;6.10;4.50;;;9.50;78.20;;;;;;5085749;28;20503;-89
2021/10/23 05:15:35;;;;;;;8.27;4.33;;;9.60;78.60;;;;;;5068540;28;20296;-89
2021/10/23 05:18:01;;;;;;;7.83;5.57;;;9.50;78.60;;;;;;5068208;28;20239;-89
2021/10/23 05:20:27;;;;;;;8.43;4.87;;;9.60;78.00;;;;;;5086858;28;20209;-90
2021/10/23 05:22:53;;;;;;;14.20;6.17;;;9.50;78.10;;;;;;5106650;28;20172;-90
2021/10/23 05:25:19;;;;;;;7.77;6.23;;;9.60;78.10;;;;;;5109829;28;20196;-90
2021/10/23 05:27:45;;;;;;;9.90;6.73;;;9.60;78.10;;;;;;5093721;28;20208;-91
2021/10/23 05:30:11;;;;;;;9.17;6.23;;;9.50;78.00;;;;;;5070322;28;20213;-90
2021/10/23 05:32:37;;;;;;;10.87;7.63;;;9.50;78.40;;;;;;5084449;28;20181;-90
2021/10/23 05:35:03;;;;;;;13.13;7.70;;;9.50;78.00;;;;;;5096698;28;20245;-90
2021/10/23 05:37:29;;;;;;;11.53;7.60;;;9.40;78.60;;;;;;5073395;28;20184;-89
2021/10/23 05:39:55;;;;;;;10.47;8.17;;;9.40;78.60;;;;;;5083871;28;20204;-89
2021/10/23 05:42:20;;;;;;;12.80;8.57;;;9.40;78.70;;;;;;5103433;28;20193;-91
2021/10/23 05:44:46;;;;;;;9.77;6.60;;;9.50;78.70;;;;;;5084792;28;20198;-90
2021/10/23 05:47:12;;;;;;;10.83;6.63;;;9.40;78.40;;;;;;5084721;28;20189;-90
2021/10/23 05:49:38;;;;;;;10.07;7.87;;;9.40;78.50;;;;;;5102785;28;20243;-90
2021/10/23 05:52:03;;;;;;;10.17;6.40;;;9.20;78.10;;;;;;5102418;28;20200;-86
2021/10/23 05:54:29;;;;;;;7.67;6.10;;;9.20;78.90;;;;;;5102034;28;20177;-86
2021/10/23 05:56:55;;;;;;;9.67;5.87;;;9.10;79.20;;;;;;5100853;28;20217;-89
2021/10/23 05:59:22;;;;;;;9.10;5.97;;;9.00;79.90;;;;;;5098447;28;20293;-87
2021/10/23 06:01:56;;;;;;;6.97;5.37;;;9.00;79.80;;;;;;5084049;28;20193;-87
2021/10/23 06:04:21;;;;;;;7.37;5.27;;;9.00;80.30;;;;;;5104229;28;20187;-89
2021/10/23 06:06:47;;;;;;;8.47;5.77;;;9.10;80.40;;;;;;5085693;28;20188;-90
2021/10/23 06:09:13;;;;;;;8.67;5.00;;;9.20;80.00;;;;;;5104344;28;20715;-89
2021/10/23 06:11:38;;;;;;;10.33;5.50;;;9.20;79.40;;;;;;5104791;28;20267;-90
2021/10/23 06:14:05;;;;;;;8.27;5.20;;;9.20;79.10;;;;;;5086183;28;20184;-90
2021/10/23 06:16:31;;;;;;;11.43;5.47;;;9.10;79.30;;;;;;5085764;28;20233;-90
2021/10/23 06:18:56;;;;;;;7.33;4.50;;;9.00;79.20;;;;;;5086626;28;20179;-90
2021/10/23 06:21:22;;;;;;;7.10;4.70;;;8.80;80.40;;;;;;5070165;28;20194;-90
2021/10/23 06:23:48;;;;;;;7.50;5.37;;;8.80;81.40;;;;;;5068976;28;20198;-90
2021/10/23 06:26:14;;;;;;;7.80;5.33;;;8.80;81.50;;;;;;5070033;28;20184;-89
2021/10/23 06:28:39;;;;;;;7.03;5.03;;;9.00;81.10;;;;;;5104547;28;20195;-89
2021/10/23 06:31:06;;;;;;;7.20;5.13;;;8.90;81.00;;;;;;5104188;28;20204;-89
2021/10/23 06:33:33;;;;;;;8.40;4.57;;;9.00;80.70;;;;;;5069479;28;20179;-90
2021/10/23 06:35:59;;;;;;;8.17;5.47;;;9.00;80.80;;;;;;5103848;28;20206;-89
2021/10/23 06:38:25;;;;;;;7.43;4.93;;;8.90;80.90;;;;;;5086734;28;20286;-89
2021/10/23 06:40:51;;;;;;;8.10;5.40;;;8.90;80.60;;;;;;5064683;28;20212;-89
2021/10/23 06:43:17;;;;;;;9.30;6.83;;;8.90;80.50;;;;;;5083362;28;20183;-89
2021/10/23 06:45:43;;;;;;;12.20;7.93;;;8.90;80.70;;;;;;5103521;28;20179;-89
2021/10/23 06:48:10;;;;;;;11.00;7.77;;;9.00;80.50;;;;;;5103741;28;20176;-90
2021/10/23 06:50:35;;;;;;;11.63;7.07;;;9.00;80.40;;;;;;5085636;28;20195;-89
2021/10/23 06:53:01;;;;;;;9.47;6.40;;;8.90;80.30;;;;;;5084457;28;20240;-89
2021/10/23 06:55:27;;;;;;;9.33;6.70;;;8.90;80.90;;;;;;5102209;28;20214;-89
2021/10/23 06:57:53;;;;;;;10.00;5.40;;;8.90;80.70;;;;;;5102995;28;20179;-89
2021/10/23 07:00:19;;;;;;;12.27;7.83;;;8.90;80.80;;;;;;5067388;28;20270;-90
2021/10/23 07:02:45;;;;;;;12.13;7.63;;;9.00;80.40;;;;;;5084164;28;20216;-89
2021/10/23 07:05:16;;;;;;;16.20;7.77;;;9.00;80.40;;;;;;5102563;28;20246;-89
2021/10/23 07:07:42;;;;;;;11.03;7.27;;;8.90;80.70;;;;;;5084486;28;20181;-89
2021/10/23 07:10:09;;;;;;;22.27;12.43;;;9.00;81.00;;;;;;5087765;28;20245;-89
2021/10/23 07:12:35;;;;;;;33.27;23.03;;;9.00;80.70;;;;;;5088652;28;20223;-89
2021/10/23 07:15:03;;;;;;;15.20;9.60;;;9.00;80.50;;;;;;5103963;28;20229;-89
2021/10/23 07:17:29;;;;;;;13.43;10.43;;;9.10;81.60;;;;;;5086203;28;20255;-88
2021/10/23 07:19:55;;;;;;;10.87;7.60;;;9.10;81.20;;;;;;5085263;28;20211;-88
2021/10/23 07:22:21;;;;;;;14.57;9.63;;;9.10;80.90;;;;;;5084270;28;20192;-88
2021/10/23 07:24:47;;;;;;;15.40;10.30;;;9.20;80.70;;;;;;5065459;28;20226;-87
2021/10/23 07:27:13;;;;;;;17.57;9.67;;;9.30;80.40;;;;;;5117991;28;20198;-91
2021/10/23 07:29:39;;;;;;;10.83;8.13;;;9.30;80.40;;;;;;5082913;28;20207;-88
2021/10/23 07:32:05;;;;;;;12.60;8.23;;;9.40;80.20;;;;;;5099456;28;20187;-88
2021/10/23 07:34:30;;;;;;;8.53;6.90;;;9.30;80.20;;;;;;5087240;28;20172;-91
2021/10/23 07:36:56;;;;;;;12.33;8.07;;;9.30;80.10;;;;;;5085336;28;20219;-91
2021/10/23 07:39:22;;;;;;;10.77;6.93;;;9.30;80.50;;;;;;5081886;28;20682;-87
2021/10/23 07:41:48;;;;;;;10.13;7.43;;;9.30;80.90;;;;;;5098346;28;20572;-88
2021/10/23 07:44:14;;;;;;;11.27;6.90;;;9.40;80.70;;;;;;5097594;28;20188;-88
2021/10/23 07:46:40;;;;;;;11.97;8.00;;;9.40;80.60;;;;;;5098450;28;20191;-88
2021/10/23 07:49:09;;;;;;;13.93;8.47;;;9.40;80.90;;;;;;5098504;28;20196;-88
2021/10/23 07:51:35;;;;;;;17.40;12.30;;;9.30;81.50;;;;;;5081736;28;20192;-89
2021/10/23 07:54:09;;;;;;;17.23;11.93;;;9.30;81.90;;;;;;5081572;28;20181;-88
2021/10/23 07:56:43;;;;;;;19.47;13.40;;;9.30;82.00;;;;;;5083384;28;20243;-88
2021/10/23 07:59:09;;;;;;;18.67;13.07;;;9.30;81.70;;;;;;5085502;28;20207;-88
2021/10/23 08:01:35;;;;;;;18.57;13.40;;;9.30;81.60;;;;;;5085282;28;20616;-89
2021/10/23 08:04:02;;;;;;;22.03;15.73;;;9.30;81.40;;;;;;5084039;28;20186;-89
2021/10/23 08:06:28;;;;;;;23.70;15.10;;;9.10;82.60;;;;;;5086095;28;20184;-89
2021/10/23 08:08:54;;;;;;;24.93;15.13;;;9.00;83.20;;;;;;5069406;28;20299;-89
2021/10/23 08:11:20;;;;;;;20.57;13.83;;;9.20;82.80;;;;;;5104102;28;20208;-90
2021/10/23 08:13:46;;;;;;;21.93;12.63;;;9.20;82.20;;;;;;5087128;28;20188;-88
2021/10/23 08:16:13;;;;;;;17.67;14.00;;;9.30;81.70;;;;;;5086012;28;20215;-88
2021/10/23 08:18:39;;;;;;;21.30;14.37;;;9.30;82.70;;;;;;5082736;28;20194;-89
2021/10/23 08:21:04;;;;;;;19.90;14.10;;;9.10;83.50;;;;;;5084372;28;20259;-89
2021/10/23 08:23:30;;;;;;;19.50;12.70;;;9.10;84.50;;;;;;5100340;28;20514;-86
2021/10/23 08:25:56;;;;;;;19.10;12.10;;;9.30;83.70;;;;;;5105823;28;20650;-88
2021/10/23 08:28:25;;;;;;;20.23;11.30;;;9.20;83.30;;;;;;5104376;28;20189;-88
2021/10/23 08:30:52;;;;;;;18.63;12.13;;;9.20;83.90;;;;;;5104818;28;20273;-88
2021/10/23 08:33:18;;;;;;;15.57;11.67;;;9.20;85.30;;;;;;5105627;28;20255;-87
2021/10/23 08:35:44;;;;;;;15.73;10.93;;;9.30;84.50;;;;;;5087790;28;20253;-90
2021/10/23 08:38:10;;;;;;;12.80;9.30;;;9.30;84.60;;;;;;5101331;28;20186;-89
2021/10/23 08:40:36;;;;;;;11.67;7.77;;;9.60;82.70;;;;;;5086221;28;20284;-89
2021/10/23 08:43:04;;;;;;;13.17;8.07;;;9.80;81.00;;;;;;5085151;28;20188;-87
2021/10/23 08:45:31;;;;;;;14.30;8.53;;;10.00;79.40;;;;;;5107069;28;20245;-90
2021/10/23 08:48:00;;;;;;;10.40;6.53;;;10.00;80.30;;;;;;5103008;28;20204;-89
2021/10/23 08:50:26;;;;;;;9.63;6.53;;;10.10;79.90;;;;;;5087216;28;20211;-89
2021/10/23 08:52:56;;;;;;;9.93;6.27;;;9.90;80.50;;;;;;5086921;28;20667;-89
2021/10/23 08:55:22;;;;;;;8.20;5.70;;;10.10;79.70;;;;;;5103297;28;20267;-86
2021/10/23 08:57:48;;;;;;;10.53;5.80;;;10.30;78.60;;;;;;5103667;28;20274;-89
2021/10/23 09:00:15;;;;;;;6.13;4.57;;;10.30;78.30;;;;;;5103044;28;20261;-89
2021/10/23 09:02:40;;;;;;;9.97;4.53;;;10.40;77.50;;;;;;5099621;28;20173;-89
2021/10/23 09:05:07;;;;;;;6.77;4.43;;;10.50;75.90;;;;;;5103116;28;20195;-91
2021/10/23 09:07:33;;;;;;;7.47;4.70;;;10.60;75.80;;;;;;5107498;28;20191;-87
2021/10/23 09:10:05;;;;;;;6.13;4.40;;;10.70;73.90;;;;;;5094307;28;20192;-87
2021/10/23 09:12:36;;;;;;;9.63;4.37;;;10.50;75.00;;;;;;5109723;28;20182;-87
2021/10/23 09:15:15;;;;;;;7.37;6.27;;;10.60;74.70;;;;;;5104838;28;20233;-87
2021/10/23 09:17:47;;;;;;;9.73;5.60;;;10.70;75.40;;;;;;5108218;28;20271;-88
2021/10/23 09:20:15;;;;;;;6.83;4.73;;;10.80;74.80;;;;;;5100457;28;20646;-87
2021/10/23 09:22:46;;;;;;;7.43;4.90;;;10.90;74.20;;;;;;5100674;28;20184;-87
2021/10/23 09:25:15;;;;;;;12.50;5.03;;;11.00;73.50;;;;;;5091333;28;20204;-89
2021/10/23 09:28:00;;;;;;;8.13;5.20;;;11.00;73.70;;;;;;5101846;28;20209;-87
2021/10/23 09:30:33;;;;;;;6.77;5.13;;;11.10;74.70;;;;;;5102502;28;20203;-87
2021/10/23 09:33:06;;;;;;;7.07;5.17;;;11.30;72.80;;;;;;5080481;28;20196;-88
2021/10/23 09:35:34;;;;;;;8.93;5.20;;;11.60;72.00;;;;;;5100430;28;20810;-88
2021/10/23 09:38:00;;;;;;;7.53;5.37;;;11.60;72.60;;;;;;5083921;28;20184;-88
2021/10/23 09:40:29;;;;;;;6.77;5.13;;;11.80;71.10;;;;;;5099505;28;20210;-87
2021/10/23 09:43:14;;;;;;;5.80;4.43;;;12.00;71.50;;;;;;5077837;28;20208;-88
2021/10/23 09:46:02;;;;;;;7.83;5.37;;;12.10;71.80;;;;;;5083006;28;20220;-88
2021/10/23 09:48:27;;;;;;;7.90;5.10;;;12.20;69.90;;;;;;5068835;28;20380;-86
2021/10/23 09:51:26;;;;;;;7.13;5.03;;;12.50;69.30;;;;;;5102068;28;20205;-90
2021/10/23 09:53:59;;;;;;;8.50;4.97;;;12.30;70.20;;;;;;5102437;28;20181;-85
2021/10/23 09:56:32;;;;;;;11.70;5.13;;;12.30;70.00;;;;;;5079684;28;20241;-89
2021/10/23 09:58:58;;;;;;;7.50;4.80;;;12.50;69.20;;;;;;5101364;28;20185;-89
2021/10/23 10:01:34;;;;;;;11.20;4.47;;;12.80;68.30;;;;;;5095345;28;20188;-89
2021/10/23 10:04:04;;;;;;;7.27;4.67;;;13.10;66.90;;;;;;5092289;28;20299;-89
2021/10/23 10:06:30;;;;;;;8.60;4.87;;;13.10;66.90;;;;;;5094819;28;20190;-89
2021/10/23 10:08:56;;;;;;;9.53;4.67;;;12.80;68.90;;;;;;5070963;28;20194;-87
2021/10/23 10:11:22;;;;;;;6.87;4.30;;;13.10;68.20;;;;;;5058098;28;20354;-89
2021/10/23 10:13:49;;;;;;;8.73;4.70;;;13.60;66.40;;;;;;5093387;28;20281;-86
2021/10/23 10:16:15;;;;;;;9.17;5.00;;;13.90;64.20;;;;;;5092181;28;20204;-88
2021/10/23 10:18:42;;;;;;;7.07;4.90;;;13.90;62.20;;;;;;5092867;28;20215;-89
2021/10/23 10:21:09;;;;;;;6.77;4.30;;;14.10;62.30;;;;;;5094261;28;20240;-89
2021/10/23 10:23:40;;;;;;;6.90;4.40;;;14.30;63.90;;;;;;5099685;28;20273;-87
2021/10/23 10:26:23;;;;;;;7.80;5.07;;;13.90;64.60;;;;;;5093814;28;20200;-87
2021/10/23 10:29:11;;;;;;;7.23;4.70;;;13.50;64.70;;;;;;5111895;28;20177;-84
2021/10/23 10:32:04;;;;;;;7.17;4.13;;;13.70;65.30;;;;;;5094913;28;20198;-85
2021/10/23 10:43:01;;;;;;;6.60;4.37;;;14.80;60.50;;;;;;5098887;28;20185;-86
2021/10/23 10:46:03;;;;;;;8.17;4.73;;;15.00;59.60;;;;;;5104387;28;20186;-88
2021/10/23 10:48:29;;;;;;;5.80;4.07;;;14.70;60.10;;;;;;5103799;28;20608;-86
2021/10/23 10:51:14;;;;;;;6.27;3.80;;;14.70;61.60;;;;;;5105517;28;20210;-88
2021/10/23 10:54:04;;;;;;;5.20;4.13;;;14.70;61.20;;;;;;5083206;28;20236;-87
2021/10/23 10:56:42;;;;;;;7.20;4.50;;;15.00;61.00;;;;;;5066606;28;20221;-88
2021/10/23 10:59:07;;;;;;;6.03;3.70;;;14.90;59.20;;;;;;5100033;28;20183;-87
2021/10/23 11:01:34;;;;;;;9.10;4.47;;;14.80;60.20;;;;;;5103025;28;20193;-87
2021/10/23 11:04:03;;;;;;;7.97;4.30;;;14.90;59.90;;;;;;5083202;28;20188;-88
2021/10/23 11:09:12;;;;;;;7.70;4.17;;;15.70;58.60;;;;;;5102927;28;20187;-88
2021/10/23 11:11:44;;;;;;;5.60;3.93;;;15.60;57.70;;;;;;5083764;28;20194;-88
2021/10/23 11:14:39;;;;;;;4.97;3.97;;;15.80;55.00;;;;;;5094326;28;20718;-88
2021/10/23 11:17:04;;;;;;;5.90;3.27;;;16.30;53.00;;;;;;5098082;28;20193;-87
2021/10/23 11:19:31;;;;;;;10.67;3.40;;;16.50;52.10;;;;;;5102582;28;20199;-87
2021/10/23 11:22:14;;;;;;;6.53;3.80;;;16.40;51.60;;;;;;5102728;28;20187;-87
2021/10/23 11:24:51;;;;;;;7.67;3.83;;;16.60;51.30;;;;;;5087808;28;20214;-87
2021/10/23 11:27:30;;;;;;;4.53;3.30;;;16.70;51.30;;;;;;5104665;28;20194;-87
2021/10/23 11:30:11;;;;;;;4.67;3.47;;;16.70;51.60;;;;;;5086621;28;20284;-88
2021/10/23 11:32:43;;;;;;;5.80;3.67;;;16.60;52.40;;;;;;5104963;28;20287;-89
2021/10/23 11:35:10;;;;;;;6.03;3.60;;;16.80;52.40;;;;;;5104709;28;20206;-86
2021/10/23 11:37:37;;;;;;;8.87;3.80;;;16.70;50.40;;;;;;5104004;28;20657;-87
2021/10/23 11:40:09;;;;;;;5.97;4.20;;;16.90;52.60;;;;;;5103604;28;20275;-86
2021/10/23 11:42:37;;;;;;;4.53;3.87;;;17.30;50.10;;;;;;5091858;28;20244;-88
2021/10/23 11:45:23;;;;;;;4.90;3.55;;;17.20;50.50;;;;;;5085058;28;20209;-90
2021/10/23 11:47:50;;;;;;;6.78;3.70;;;17.20;51.60;;;;;;5085501;28;20216;-88
2021/10/23 11:50:29;;;;;;;4.00;3.40;;;17.90;48.90;;;;;;5085516;28;20213;-88
2021/10/23 11:52:59;;;;;;;5.70;3.63;;;18.50;47.80;;;;;;5101414;28;20268;-89
2021/10/23 11:55:32;;;;;;;3.35;2.90;;;18.40;47.10;;;;;;5101624;28;20214;-87
2021/10/23 11:58:07;;;;;;;4.85;3.00;;;18.60;46.40;;;;;;5085034;28;20195;-89
2021/10/23 12:00:35;;;;;;;3.55;2.60;;;18.20;44.80;;;;;;5087073;28;20202;-90
2021/10/23 12:03:04;;;;;;;3.03;2.60;;;18.10;44.20;;;;;;5065303;28;20241;-89
2021/10/23 12:05:40;;;;;;;4.15;2.88;;;18.20;45.90;;;;;;5066899;28;20198;-89
2021/10/23 12:08:14;;;;;;;3.92;2.63;;;18.20;46.50;;;;;;5088524;28;20183;-90
2021/10/23 12:11:02;;;;;;;4.72;2.92;;;17.40;46.70;;;;;;5070490;28;20211;-89
2021/10/23 12:13:43;;;;;;;5.93;3.53;;;17.00;49.70;;;;;;5086371;28;20224;-90
2021/10/23 12:16:09;;;;;;;4.57;3.10;;;17.00;48.90;;;;;;5069435;28;20786;-89
2021/10/23 12:18:40;;;;;;;4.60;3.13;;;16.70;49.20;;;;;;5087042;28;20215;-90
2021/10/23 12:21:10;;;;;;;6.33;3.07;;;16.50;49.90;;;;;;5084319;28;20404;-89
2021/10/23 12:23:42;;;;;;;5.57;3.27;;;16.40;51.00;;;;;;5102311;28;20192;-88
2021/10/23 12:26:08;;;;;;;3.53;2.90;;;16.30;51.70;;;;;;5072416;28;20198;-89
2021/10/23 12:29:03;;;;;;;4.20;2.70;;;16.20;51.90;;;;;;5102472;28;20207;-89
2021/10/23 12:31:57;;;;;;;6.73;2.50;;;16.00;53.10;;;;;;5070470;28;20557;-88
2021/10/23 12:34:25;;;;;;;5.17;2.93;;;16.00;54.80;;;;;;5084178;28;20700;-89
2021/10/23 12:36:58;;;;;;;9.40;5.00;;;16.00;55.30;;;;;;5097123;28;20195;-89
2021/10/23 12:39:27;;;;;;;8.83;3.33;;;16.00;53.50;;;;;;5106443;28;20191;-88
2021/10/23 12:41:54;;;;;;;7.03;3.90;;;15.90;53.60;;;;;;5085509;28;20220;-88
2021/10/23 12:44:24;;;;;;;32.67;18.63;;;15.90;54.00;;;;;;5099994;28;20243;-88
2021/10/23 12:46:54;;;;;;;10.23;6.90;;;15.80;54.00;;;;;;5090337;28;20215;-89
2021/10/23 12:49:23;;;;;;;4.07;2.70;;;15.80;53.50;;;;;;5096868;28;20217;-89
2021/10/23 12:51:50;;;;;;;6.50;4.90;;;15.70;53.10;;;;;;5097834;28;20210;-89
2021/10/23 12:54:17;;;;;;;4.83;2.70;;;15.70;54.30;;;;;;5094570;28;20189;-89
2021/10/23 12:56:44;;;;;;;3.17;2.70;;;15.70;53.30;;;;;;5095515;28;20692;-86
2021/10/23 12:59:10;;;;;;;6.03;3.13;;;15.60;54.90;;;;;;5097315;28;20318;-88
2021/10/23 13:01:36;;;;;;;4.10;3.30;;;15.60;55.70;;;;;;5102335;28;20192;-88
2021/10/23 13:04:03;;;;;;;5.10;3.30;;;15.50;56.00;;;;;;5105932;28;20188;-86
2021/10/23 13:06:28;;;;;;;5.40;2.87;;;15.40;55.20;;;;;;5099520;28;20208;-86